Airfield :







YOU CAN JOIN US ON...

 
LOGIN :

Register | Disclaimer

   EN    FR    IT 

 









Legend :    VFR   Marginal VFR   IFR   Intensive IFR   Very Intensive IFR
Visi :
Ceiling :
>= 8 km
>= 3000ft
5 to 8 km
1000 to 3000 ft
1500m to 5 km
500 to 1000 ft
800 to 1500m
200 to 500 ft
< 800m
< 200 ft
Symbols :   Thunderstorms  Fog  Heavy snow  Heavy precipitations  Wind > 20 kt






- Airport Elevation : 461 ft
- IATA code : YYT


CYYT - St John's Int

CURRENT METAR :
  • 240900Z 04015G21KT 15SM BKN007 BKN014 OVC160 09/07 A3028 RMK SF5SC2AC1 SLP259

EXPIRED METARs :
  • 240850Z 04014G21KT 15SM BKN007 OVC025 09/08 A3028 RMK SF6SC2 SLP257
  • 240800Z 03014G21KT 12SM -DZ OVC007 09/08 A3026 RMK SF8 SLP251
  • 240700Z 04016G21KT 15SM BKN005 OVC015 09/09 A3024 RMK SF7SC1 SLP244

TAF TAF CYYT
Valid from the 24 at 06:00 until the 25 at 06:00 UTC


240538Z 2406/2506 02012KT 2SM -RA -DZ BR OVC004
TEMPO 2406/2411 P6SM NSW SCT004 OVC030
FM241100 05012G22KT P6SM FEW012 BKN050
TEMPO 2411/2412 BKN012
FM241400 04012G22KT P6SM FEW020
FM242300 03010KT P6SM SCT012
TEMPO 2423/2506 BKN012 RMK NXT FCST BY 241200Z
CZQX FIR / North America



MET'MAP, your aeronautical weather chart ! - Copyright ORBIFLY December 2007 - Disclaimer

ORBIFLY MET'MAP TEAM :

Programming & Development : Alexandra Zaïnal
Concept & original design : Baudouin d'Aumeries
Assistance for programming : Marc-Olivier Méhu
Technical & hardware support : Manuel Goepfert

Contact : metmap@orbifly.com




SOURCES & CREDITS :

   NOAA